createdAt,value
2018-12-24T00:00:38.208Z,13.00
2018-12-24T00:03:05.744Z,12.90
2018-12-24T00:05:33.330Z,13.00
2018-12-24T00:08:00.901Z,12.90
2018-12-24T00:10:28.477Z,12.90
2018-12-24T00:12:56.022Z,12.90
2018-12-24T00:15:23.589Z,13.00
2018-12-24T00:17:51.126Z,13.00
2018-12-24T00:20:18.692Z,12.90
2018-12-24T00:22:46.224Z,12.80
2018-12-24T00:25:13.763Z,12.90
2018-12-24T00:27:41.328Z,12.90
2018-12-24T00:30:08.863Z,13.00
2018-12-24T00:32:36.423Z,12.90
2018-12-24T00:35:03.962Z,12.80
2018-12-24T00:37:32.307Z,12.50
2018-12-24T00:39:59.989Z,12.50
2018-12-24T00:42:29.639Z,12.50
2018-12-24T00:44:55.155Z,12.40
2018-12-24T00:47:22.713Z,12.40
2018-12-24T00:49:50.276Z,12.40
2018-12-24T00:52:17.824Z,12.30
2018-12-24T00:54:45.385Z,12.30
2018-12-24T00:57:17.830Z,12.30
2018-12-24T00:59:46.159Z,12.40
2018-12-24T01:02:13.694Z,12.40
2018-12-24T01:04:41.259Z,12.50
2018-12-24T01:07:08.805Z,12.60
2018-12-24T01:09:36.363Z,12.70
2018-12-24T01:12:04.000Z,12.70
2018-12-24T01:14:31.573Z,12.60
2018-12-24T01:16:59.124Z,12.60
2018-12-24T01:19:26.692Z,12.60
2018-12-24T01:21:54.256Z,12.60
2018-12-24T01:24:21.793Z,12.70
2018-12-24T01:26:49.366Z,12.70
2018-12-24T01:29:16.902Z,12.70
2018-12-24T01:31:44.467Z,12.80
2018-12-24T01:34:12.004Z,12.70
2018-12-24T01:36:39.576Z,12.70
2018-12-24T01:39:07.115Z,12.70
2018-12-24T01:41:34.687Z,12.70
2018-12-24T01:44:02.221Z,12.70
2018-12-24T01:46:30.547Z,12.80
2018-12-24T01:48:58.311Z,12.80
2018-12-24T01:51:25.859Z,12.80
2018-12-24T01:53:54.412Z,12.80
2018-12-24T01:56:21.948Z,12.80
2018-12-24T01:58:50.499Z,12.80
2018-12-24T02:01:18.039Z,12.80
2018-12-24T02:03:45.608Z,12.80
2018-12-24T02:06:13.151Z,12.80
2018-12-24T02:08:40.719Z,12.80
2018-12-24T02:11:08.264Z,12.90
2018-12-24T02:13:35.827Z,12.90
2018-12-24T02:16:03.365Z,12.80
2018-12-24T02:18:30.899Z,12.70
2018-12-24T02:20:59.239Z,12.70
2018-12-24T02:23:26.775Z,12.70
2018-12-24T02:25:54.351Z,12.70
2018-12-24T02:28:21.891Z,12.60
2018-12-24T02:30:49.451Z,12.60
2018-12-24T02:33:16.989Z,12.50
2018-12-24T02:35:44.557Z,12.60
2018-12-24T02:38:12.094Z,12.50
2018-12-24T02:40:39.780Z,12.60
2018-12-24T02:43:07.325Z,12.60
2018-12-24T02:45:34.859Z,12.60
2018-12-24T02:48:02.438Z,12.70
2018-12-24T02:50:29.983Z,12.70
2018-12-24T02:52:57.549Z,12.80
2018-12-24T02:55:25.092Z,12.80
2018-12-24T02:57:52.655Z,12.80
2018-12-24T03:00:20.192Z,12.80
2018-12-24T03:02:47.765Z,12.80
2018-12-24T03:05:15.347Z,12.80
2018-12-24T03:07:42.913Z,12.90
2018-12-24T03:10:10.449Z,12.80
2018-12-24T03:12:38.021Z,12.80
2018-12-24T03:15:05.564Z,12.70
2018-12-24T03:17:33.110Z,12.80
2018-12-24T03:20:00.674Z,12.70
2018-12-24T03:22:28.230Z,12.80
2018-12-24T03:24:56.814Z,12.70
2018-12-24T03:27:24.355Z,12.70
2018-12-24T03:29:51.921Z,12.70
2018-12-24T03:32:19.469Z,12.80
2018-12-24T03:34:47.053Z,12.80
2018-12-24T03:37:14.604Z,12.80
2018-12-24T03:39:42.172Z,12.80
2018-12-24T03:42:09.728Z,12.80
2018-12-24T03:44:37.279Z,12.70
2018-12-24T03:47:05.822Z,12.60
2018-12-24T03:49:33.351Z,12.30
2018-12-24T03:52:00.920Z,12.10
2018-12-24T03:54:28.462Z,12.00
2018-12-24T03:56:56.028Z,12.00
2018-12-24T03:59:23.652Z,12.00
2018-12-24T04:01:51.332Z,12.00
2018-12-24T04:04:18.888Z,12.00
2018-12-24T04:06:46.451Z,12.10
2018-12-24T04:09:13.991Z,12.10
2018-12-24T04:11:41.552Z,12.00
2018-12-24T04:14:09.115Z,11.90
2018-12-24T04:16:36.657Z,11.80
2018-12-24T04:19:04.231Z,11.60
2018-12-24T04:21:31.875Z,11.20
2018-12-24T04:23:59.461Z,9.50
2018-12-24T04:26:27.007Z,8.20
2018-12-24T04:28:54.580Z,17.50
2018-12-24T04:31:22.129Z,12.30
2018-12-24T04:33:49.686Z,13.20
2018-12-24T04:36:17.273Z,13.40
2018-12-24T04:38:46.501Z,14.90
2018-12-24T04:41:14.082Z,15.70
2018-12-24T04:43:41.680Z,17.30
2018-12-24T04:46:10.161Z,17.90
2018-12-24T04:48:38.464Z,19.10
2018-12-24T04:51:06.041Z,19.00
2018-12-24T04:53:33.588Z,19.20
2018-12-24T04:56:02.145Z,19.40
2018-12-24T04:58:30.448Z,20.00
2018-12-24T05:00:57.997Z,19.90
2018-12-24T05:03:25.683Z,20.20
2018-12-24T05:05:53.248Z,20.10
2018-12-24T05:08:20.826Z,19.90
2018-12-24T05:10:48.365Z,19.80
2018-12-24T05:13:15.944Z,19.60
2018-12-24T05:15:43.484Z,19.20
2018-12-24T05:18:11.072Z,19.60
2018-12-24T05:20:39.402Z,20.50
2018-12-24T05:23:06.949Z,20.50
2018-12-24T05:25:34.616Z,20.30
2018-12-24T05:28:02.160Z,20.70
2018-12-24T05:30:29.737Z,20.60
2018-12-24T05:32:57.306Z,20.30
2018-12-24T05:35:24.862Z,20.10
2018-12-24T05:37:52.440Z,20.00
2018-12-24T05:40:20.008Z,19.70
2018-12-24T05:42:48.361Z,19.50
2018-12-24T05:45:15.911Z,19.40
2018-12-24T05:47:43.452Z,19.40
2018-12-24T05:50:11.028Z,19.10
2018-12-24T05:52:38.597Z,19.20
2018-12-24T05:55:06.168Z,18.60
2018-12-24T05:57:33.713Z,18.10
2018-12-24T06:00:02.281Z,18.50
2018-12-24T06:02:30.869Z,18.50
2018-12-24T06:04:58.444Z,18.20
2018-12-24T06:07:26.760Z,17.10
2018-12-24T06:09:54.301Z,17.00
2018-12-24T06:12:22.602Z,16.20
2018-12-24T06:14:50.146Z,15.80
2018-12-24T06:17:17.721Z,16.10
2018-12-24T06:19:45.294Z,16.20
2018-12-24T06:22:12.846Z,15.60
2018-12-24T06:24:40.418Z,16.00
2018-12-24T06:27:08.000Z,16.00
2018-12-24T06:29:35.585Z,16.10
2018-12-24T06:32:03.129Z,16.10
2018-12-24T06:34:30.700Z,16.10
2018-12-24T06:36:58.257Z,16.10
2018-12-24T06:39:25.941Z,16.10
2018-12-24T06:41:54.502Z,15.90
2018-12-24T06:44:22.076Z,15.70
2018-12-24T06:46:49.630Z,15.50
2018-12-24T06:49:17.213Z,15.50
2018-12-24T06:51:44.787Z,15.60
2018-12-24T06:54:12.338Z,15.50
2018-12-24T06:56:40.897Z,15.50
2018-12-24T06:59:08.445Z,15.00
2018-12-24T07:01:36.118Z,14.80
2018-12-24T07:04:03.660Z,14.40
2018-12-24T07:06:31.271Z,14.20
2018-12-24T07:08:58.853Z,14.00
2018-12-24T07:11:26.404Z,13.90
2018-12-24T07:13:53.973Z,13.70
2018-12-24T07:16:21.557Z,13.60
2018-12-24T07:18:49.142Z,13.70
2018-12-24T07:21:16.765Z,13.80
2018-12-24T07:23:44.345Z,13.80
2018-12-24T07:26:11.897Z,13.60
2018-12-24T07:28:39.464Z,13.50
2018-12-24T07:31:07.041Z,13.50
2018-12-24T07:33:34.633Z,13.70
2018-12-24T07:36:02.184Z,13.90
2018-12-24T07:38:29.736Z,13.90
2018-12-24T07:40:58.312Z,13.90
2018-12-24T07:43:25.867Z,13.80
2018-12-24T07:45:53.454Z,13.70
2018-12-24T07:48:21.000Z,13.70
2018-12-24T07:50:48.553Z,13.70
2018-12-24T07:53:16.373Z,13.70
2018-12-24T07:55:43.949Z,13.60
2018-12-24T07:58:11.531Z,13.70
2018-12-24T08:00:39.080Z,13.60
2018-12-24T08:03:07.417Z,13.40
2018-12-24T08:05:35.001Z,13.40
2018-12-24T08:08:02.591Z,13.40
2018-12-24T08:10:30.145Z,13.40
2018-12-24T08:12:57.720Z,13.20
2018-12-24T08:15:25.268Z,13.20
2018-12-24T08:17:52.844Z,13.30
2018-12-24T08:20:20.391Z,13.20
2018-12-24T08:22:47.949Z,13.10
2018-12-24T08:25:15.524Z,12.80
2018-12-24T08:27:43.092Z,12.60
2018-12-24T08:30:10.736Z,12.70
2018-12-24T08:32:38.301Z,12.80
2018-12-24T08:35:05.884Z,12.90
2018-12-24T08:37:33.428Z,12.90
2018-12-24T08:40:00.997Z,13.00
2018-12-24T08:42:28.536Z,13.10
2018-12-24T08:44:57.089Z,13.00
2018-12-24T08:47:24.652Z,13.10
2018-12-24T08:49:52.226Z,13.00
2018-12-24T08:52:19.800Z,12.60
2018-12-24T08:54:48.109Z,12.50
2018-12-24T08:57:15.695Z,12.50
2018-12-24T08:59:43.245Z,12.50
2018-12-24T09:02:10.821Z,12.40
2018-12-24T09:04:38.366Z,12.30
2018-12-24T09:07:05.943Z,12.40
2018-12-24T09:09:33.486Z,12.40
2018-12-24T09:12:01.046Z,12.40
2018-12-24T09:14:28.608Z,12.40
2018-12-24T09:16:56.186Z,12.50
2018-12-24T09:19:24.749Z,12.60
2018-12-24T09:21:52.297Z,12.60
2018-12-24T09:24:19.872Z,12.60
2018-12-24T09:26:47.477Z,12.60
2018-12-24T09:29:15.025Z,12.70
2018-12-24T09:31:43.593Z,12.70
2018-12-24T09:34:11.159Z,13.00
2018-12-24T09:36:38.700Z,13.10
2018-12-24T09:39:06.280Z,13.20
2018-12-24T09:41:33.825Z,13.30
2018-12-24T09:44:01.396Z,13.10
2018-12-24T09:46:29.713Z,13.20
2018-12-24T09:48:57.297Z,13.20
2018-12-24T09:51:24.846Z,13.10
2018-12-24T09:53:53.198Z,13.40
2018-12-24T09:56:20.759Z,13.30
2018-12-24T09:58:48.301Z,13.40
2018-12-24T10:01:15.887Z,13.20
2018-12-24T10:03:43.477Z,13.30
2018-12-24T10:06:12.053Z,12.90
2018-12-24T10:08:39.680Z,12.60
2018-12-24T10:11:07.976Z,12.40
2018-12-24T10:13:35.518Z,12.30
2018-12-24T10:16:03.097Z,12.40
2018-12-24T10:18:30.646Z,12.50
2018-12-24T10:20:58.209Z,12.80
2018-12-24T10:23:26.667Z,12.60
2018-12-24T10:25:53.486Z,12.60
2018-12-24T10:28:22.012Z,12.60
2018-12-24T10:30:49.555Z,12.70
2018-12-24T10:33:17.099Z,12.90
2018-12-24T10:35:44.668Z,12.90
2018-12-24T10:38:12.215Z,13.00
2018-12-24T10:40:39.802Z,13.20
2018-12-24T10:43:07.371Z,13.30
2018-12-24T10:45:34.918Z,13.30
2018-12-24T10:48:03.470Z,13.40
2018-12-24T10:50:31.017Z,13.40
2018-12-24T10:52:58.566Z,13.20
2018-12-24T10:55:26.132Z,13.20
2018-12-24T10:57:53.691Z,13.20
2018-12-24T11:00:21.264Z,13.20
2018-12-24T11:02:48.807Z,13.30
2018-12-24T11:05:16.373Z,13.40
2018-12-24T11:07:43.917Z,13.50
2018-12-24T11:10:11.497Z,13.50
2018-12-24T11:12:39.048Z,13.20
2018-12-24T11:15:06.592Z,13.30
2018-12-24T11:17:34.164Z,13.40
2018-12-24T11:20:01.730Z,13.50
2018-12-24T11:22:29.305Z,13.70
2018-12-24T11:24:56.852Z,14.00
2018-12-24T11:27:24.428Z,14.20
2018-12-24T11:29:52.005Z,14.40
2018-12-24T11:32:19.560Z,14.60
2018-12-24T11:34:47.132Z,14.60
2018-12-24T11:37:15.657Z,14.50
2018-12-24T11:39:43.248Z,14.50
2018-12-24T11:42:10.803Z,14.50
2018-12-24T11:44:38.377Z,14.60
2018-12-24T11:47:05.949Z,14.70
2018-12-24T11:49:33.513Z,14.70
2018-12-24T11:52:01.100Z,14.70
2018-12-24T11:54:28.669Z,14.80
2018-12-24T11:56:56.217Z,14.70
2018-12-24T11:59:23.795Z,14.70
2018-12-24T12:01:51.340Z,14.80
2018-12-24T12:04:18.920Z,14.60
2018-12-24T12:06:47.247Z,14.60
2018-12-24T12:09:14.796Z,14.60
2018-12-24T12:11:42.382Z,14.60
2018-12-24T12:14:09.930Z,14.60
2018-12-24T12:16:37.509Z,14.70
2018-12-24T12:19:05.071Z,14.40
2018-12-24T12:21:32.648Z,14.50
2018-12-24T12:24:00.965Z,14.70
2018-12-24T12:26:30.318Z,14.70
2018-12-24T12:28:57.134Z,14.80
2018-12-24T12:31:24.684Z,14.70
2018-12-24T12:33:52.256Z,14.70
2018-12-24T12:36:19.799Z,14.50
2018-12-24T12:38:47.380Z,14.50
2018-12-24T12:41:14.927Z,14.70
2018-12-24T12:43:43.494Z,14.80
2018-12-24T12:46:11.040Z,14.80
2018-12-24T12:48:38.611Z,14.60
2018-12-24T12:51:06.156Z,14.60
2018-12-24T12:53:33.730Z,14.50
2018-12-24T12:56:01.309Z,14.50
2018-12-24T12:58:29.626Z,14.60
2018-12-24T13:00:57.196Z,14.60
2018-12-24T13:03:24.737Z,14.60
2018-12-24T13:05:52.305Z,14.70
2018-12-24T13:08:19.873Z,14.50
2018-12-24T13:10:47.428Z,14.50
2018-12-24T13:13:15.007Z,14.40
2018-12-24T13:15:42.585Z,14.50
2018-12-24T13:18:10.166Z,14.20
2018-12-24T13:20:37.717Z,14.10
2018-12-24T13:23:05.298Z,13.80
2018-12-24T13:25:32.835Z,13.90
2018-12-24T13:28:00.409Z,13.80
2018-12-24T13:30:27.958Z,13.40
2018-12-24T13:32:55.540Z,13.60
2018-12-24T13:35:23.086Z,13.20
2018-12-24T13:37:50.664Z,13.00
2018-12-24T13:40:18.281Z,12.70
2018-12-24T13:42:45.800Z,12.00
2018-12-24T13:45:13.379Z,11.70
2018-12-24T13:47:40.925Z,11.40
2018-12-24T13:50:09.261Z,11.20
2018-12-24T13:52:37.016Z,11.10
2018-12-24T13:55:04.596Z,11.20
2018-12-24T13:57:32.150Z,11.10
2018-12-24T13:59:59.731Z,11.20
2018-12-24T14:02:27.305Z,10.90
2018-12-24T14:04:54.846Z,10.70
2018-12-24T14:07:22.412Z,10.50
2018-12-24T14:09:50.750Z,10.60
2018-12-24T14:12:18.297Z,10.50
2018-12-24T14:14:45.865Z,10.50
2018-12-24T14:17:13.436Z,10.40
2018-12-24T14:19:40.981Z,10.40
2018-12-24T14:22:08.562Z,10.30
2018-12-24T14:24:36.111Z,10.40
2018-12-24T14:27:03.690Z,10.50
2018-12-24T14:29:31.233Z,10.20
2018-12-24T14:31:58.804Z,10.00
2018-12-24T14:34:27.141Z,9.50
2018-12-24T14:36:54.699Z,9.50
2018-12-24T14:39:22.271Z,9.50
2018-12-24T14:41:49.804Z,9.40
2018-12-24T14:44:17.369Z,9.30
2018-12-24T14:46:44.915Z,9.30
2018-12-24T14:49:12.492Z,9.50
2018-12-24T14:51:40.041Z,9.60
2018-12-24T14:54:07.622Z,9.50
2018-12-24T14:56:35.169Z,9.50
2018-12-24T14:59:02.737Z,9.40
2018-12-24T15:01:30.285Z,9.30
2018-12-24T15:03:57.840Z,9.10
2018-12-24T15:06:25.413Z,9.00
2018-12-24T15:08:52.961Z,9.10
2018-12-24T15:11:20.532Z,9.00
2018-12-24T15:13:48.077Z,9.10
2018-12-24T15:16:15.645Z,8.90
2018-12-24T15:18:43.184Z,8.90
2018-12-24T15:21:10.753Z,8.90
2018-12-24T15:23:38.304Z,8.70
2018-12-24T15:26:05.857Z,8.70
2018-12-24T15:28:33.438Z,8.70
2018-12-24T15:31:01.021Z,8.60
2018-12-24T15:33:28.575Z,8.50
2018-12-24T15:35:56.156Z,8.50
2018-12-24T15:38:23.694Z,8.50
2018-12-24T15:40:51.267Z,8.40
2018-12-24T15:43:18.835Z,8.40
2018-12-24T15:45:46.382Z,8.30
2018-12-24T15:48:13.952Z,7.50
2018-12-24T15:50:41.501Z,7.30
2018-12-24T15:53:10.060Z,7.10
2018-12-24T15:55:37.637Z,6.80
2018-12-24T15:58:05.185Z,6.70
2018-12-24T16:00:32.755Z,6.60
2018-12-24T16:03:00.300Z,6.50
2018-12-24T16:05:27.870Z,6.40
2018-12-24T16:07:55.440Z,6.30
2018-12-24T16:10:22.988Z,6.20
2018-12-24T16:12:50.567Z,6.10
2018-12-24T16:15:18.122Z,6.00
2018-12-24T16:17:46.682Z,5.80
2018-12-24T16:20:14.238Z,5.60
2018-12-24T16:22:41.780Z,5.50
2018-12-24T16:25:10.353Z,5.40
2018-12-24T16:27:37.942Z,5.30
2018-12-24T16:30:05.512Z,5.30
2018-12-24T16:32:33.051Z,5.20
2018-12-24T16:35:01.651Z,5.10
2018-12-24T16:37:29.218Z,4.80
2018-12-24T16:39:56.805Z,4.70
2018-12-24T16:42:24.391Z,4.70
2018-12-24T16:44:51.936Z,4.80
2018-12-24T16:47:19.514Z,4.90
2018-12-24T16:49:47.066Z,4.90
2018-12-24T16:52:14.641Z,4.90
2018-12-24T16:54:42.209Z,4.90
2018-12-24T16:57:09.757Z,4.80
2018-12-24T16:59:37.301Z,4.70
2018-12-24T17:02:04.878Z,4.80
2018-12-24T17:04:32.434Z,4.80
2018-12-24T17:07:00.006Z,4.80
2018-12-24T17:09:28.352Z,4.70
2018-12-24T17:11:55.906Z,4.70
2018-12-24T17:14:23.479Z,4.60
2018-12-24T17:16:51.046Z,4.60
2018-12-24T17:19:18.621Z,4.50
2018-12-24T17:21:46.261Z,4.60
2018-12-24T17:24:13.774Z,4.40
2018-12-24T17:26:41.357Z,4.40
2018-12-24T17:29:08.994Z,4.50
2018-12-24T17:31:36.572Z,4.60
2018-12-24T17:34:04.222Z,4.50
2018-12-24T17:36:31.814Z,4.60
2018-12-24T17:38:59.362Z,4.50
2018-12-24T17:41:26.946Z,4.50
2018-12-24T17:43:54.488Z,4.40
2018-12-24T17:46:22.066Z,4.40
2018-12-24T17:48:49.616Z,4.30
2018-12-24T17:51:17.169Z,4.30
2018-12-24T17:53:44.744Z,4.30
2018-12-24T17:56:12.298Z,4.30
2018-12-24T17:58:39.873Z,4.30
2018-12-24T18:01:07.420Z,4.20
2018-12-24T18:03:34.999Z,4.10
2018-12-24T18:06:02.552Z,4.00
2018-12-24T18:08:30.134Z,4.00
2018-12-24T18:10:57.686Z,4.00
2018-12-24T18:13:25.256Z,4.10
2018-12-24T18:15:52.797Z,4.00
2018-12-24T18:18:20.364Z,4.00
2018-12-24T18:20:47.925Z,4.00
2018-12-24T18:23:15.466Z,4.00
2018-12-24T18:25:43.041Z,4.00
2018-12-24T18:28:10.580Z,3.90
2018-12-24T18:30:38.174Z,3.80
2018-12-24T18:33:05.717Z,3.80
2018-12-24T18:35:33.285Z,3.70
2018-12-24T18:38:00.833Z,3.70
2018-12-24T18:40:28.404Z,3.70
2018-12-24T18:42:55.943Z,3.90
2018-12-24T18:45:23.523Z,4.00
2018-12-24T18:47:51.113Z,3.70
2018-12-24T18:50:18.662Z,3.50
2018-12-24T18:52:46.233Z,3.70
2018-12-24T18:55:14.553Z,3.80
2018-12-24T18:57:43.124Z,3.80
2018-12-24T19:00:10.675Z,3.70
2018-12-24T19:02:39.216Z,3.70
2018-12-24T19:05:06.765Z,3.60
2018-12-24T19:07:35.331Z,3.60
2018-12-24T19:10:02.906Z,3.50
2018-12-24T19:12:30.457Z,3.50
2018-12-24T19:14:58.040Z,3.60
2018-12-24T19:17:25.591Z,3.80
2018-12-24T19:19:53.170Z,3.90
2018-12-24T19:22:20.723Z,4.00
2018-12-24T19:24:48.297Z,3.60
2018-12-24T19:27:15.866Z,3.30
2018-12-24T19:29:43.436Z,3.30
2018-12-24T19:32:10.981Z,3.20
2018-12-24T19:34:38.548Z,3.30
2018-12-24T19:37:06.096Z,3.30
2018-12-24T19:39:33.681Z,3.30
2018-12-24T19:42:01.264Z,3.30
2018-12-24T19:44:28.844Z,3.20
2018-12-24T19:46:56.397Z,3.30
2018-12-24T19:49:23.937Z,3.30
2018-12-24T19:51:51.509Z,3.30
2018-12-24T19:54:19.062Z,3.20
2018-12-24T19:56:47.406Z,3.30
2018-12-24T19:59:14.967Z,3.30
2018-12-24T20:01:42.540Z,3.20
2018-12-24T20:04:10.098Z,3.10
2018-12-24T20:06:37.721Z,3.10
2018-12-24T20:09:05.316Z,3.00
2018-12-24T20:11:33.636Z,3.00
2018-12-24T20:14:02.192Z,3.00
2018-12-24T20:16:29.740Z,2.90
2018-12-24T20:18:58.292Z,2.90
2018-12-24T20:21:25.850Z,2.80
2018-12-24T20:23:53.426Z,2.80
2018-12-24T20:26:21.742Z,2.70
2018-12-24T20:28:49.320Z,2.70
2018-12-24T20:31:16.885Z,2.70
2018-12-24T20:33:44.445Z,2.70
2018-12-24T20:36:12.033Z,2.80
2018-12-24T20:38:39.589Z,2.80
2018-12-24T20:41:07.167Z,2.90
2018-12-24T20:43:34.740Z,3.00
2018-12-24T20:46:02.298Z,2.90
2018-12-24T20:48:30.849Z,2.80
2018-12-24T20:50:58.433Z,2.80
2018-12-24T20:53:25.993Z,2.60
2018-12-24T20:55:53.569Z,2.50
2018-12-24T20:58:21.111Z,2.50
2018-12-24T21:00:48.680Z,2.50
2018-12-24T21:03:16.229Z,2.50
2018-12-24T21:05:43.797Z,2.50
2018-12-24T21:08:11.373Z,2.60
2018-12-24T21:10:38.918Z,2.60
2018-12-24T21:13:07.485Z,2.60
2018-12-24T21:15:35.062Z,2.60
2018-12-24T21:18:02.648Z,2.70
2018-12-24T21:20:30.206Z,2.60
2018-12-24T21:22:57.763Z,2.60
2018-12-24T21:25:26.295Z,2.50
2018-12-24T21:27:53.845Z,2.50
2018-12-24T21:30:22.417Z,2.60
2018-12-24T21:32:50.005Z,2.70
2018-12-24T21:35:17.565Z,2.70
2018-12-24T21:37:45.144Z,2.90
2018-12-24T21:40:13.089Z,2.90
2018-12-24T21:42:40.638Z,2.90
2018-12-24T21:45:08.182Z,2.90
2018-12-24T21:47:35.763Z,3.00
2018-12-24T21:50:03.311Z,3.00
2018-12-24T21:52:30.892Z,2.90
2018-12-24T21:54:58.477Z,2.80
2018-12-24T21:57:26.797Z,2.70
2018-12-24T21:59:54.376Z,2.70
2018-12-24T22:02:21.916Z,2.70
2018-12-24T22:04:50.464Z,2.60
2018-12-24T22:07:18.000Z,2.50
2018-12-24T22:09:45.586Z,2.60
2018-12-24T22:12:13.157Z,2.50
2018-12-24T22:14:40.729Z,2.40
2018-12-24T22:17:08.281Z,2.40
2018-12-24T22:19:35.865Z,2.40
2018-12-24T22:22:03.467Z,2.40
2018-12-24T22:24:31.048Z,2.40
2018-12-24T22:26:58.593Z,2.30
2018-12-24T22:29:26.151Z,2.30
2018-12-24T22:31:53.725Z,2.30
2018-12-24T22:34:21.269Z,2.40
2018-12-24T22:36:48.840Z,2.40
2018-12-24T22:39:16.417Z,2.30
2018-12-24T22:41:43.965Z,2.40
2018-12-24T22:44:11.540Z,2.40
2018-12-24T22:46:39.129Z,2.50
2018-12-24T22:49:06.683Z,2.50
2018-12-24T22:51:34.255Z,2.30
2018-12-24T22:54:01.809Z,2.30
2018-12-24T22:56:29.399Z,2.20
2018-12-24T22:58:56.942Z,2.10
2018-12-24T23:01:24.527Z,2.00
2018-12-24T23:03:52.093Z,1.80
2018-12-24T23:06:19.641Z,1.70
2018-12-24T23:08:47.217Z,1.90
2018-12-24T23:11:14.771Z,1.80
2018-12-24T23:13:42.370Z,1.70
2018-12-24T23:16:09.924Z,1.70
2018-12-24T23:18:37.507Z,1.60
2018-12-24T23:21:05.056Z,1.60
2018-12-24T23:23:32.637Z,1.50
2018-12-24T23:26:00.177Z,1.50
2018-12-24T23:28:28.744Z,1.50
2018-12-24T23:30:56.285Z,1.60
2018-12-24T23:33:24.596Z,1.60
2018-12-24T23:35:52.173Z,1.60
2018-12-24T23:38:19.724Z,1.70
2018-12-24T23:40:47.302Z,1.80
2018-12-24T23:43:14.853Z,1.80
2018-12-24T23:45:42.416Z,1.70
2018-12-24T23:48:09.979Z,1.70
2018-12-24T23:50:37.544Z,1.70
2018-12-24T23:53:05.088Z,1.70
2018-12-24T23:55:32.633Z,1.80
2018-12-24T23:58:00.228Z,1.70
